createdAt,value
2018-12-06T00:02:39.675Z,957.4
2018-12-06T00:05:45.632Z,957.4
2018-12-06T00:08:51.698Z,957.4
2018-12-06T00:11:57.780Z,957.5
2018-12-06T00:15:03.722Z,957.5
2018-12-06T00:18:09.587Z,957.4
2018-12-06T00:21:15.536Z,957.5
2018-12-06T00:24:21.420Z,957.5
2018-12-06T00:27:27.353Z,957.4
2018-12-06T00:30:33.415Z,957.4
2018-12-06T00:33:39.372Z,957.4
2018-12-06T00:36:45.340Z,957.4
2018-12-06T00:39:51.301Z,957.4
2018-12-06T00:42:57.173Z,957.4
2018-12-06T00:46:03.236Z,957.4
2018-12-06T00:49:09.103Z,957.4
2018-12-06T00:52:15.027Z,957.4
2018-12-06T00:55:20.909Z,957.4
2018-12-06T00:58:27.184Z,957.3
2018-12-06T01:01:33.017Z,957.3
2018-12-06T01:04:38.967Z,957.3
2018-12-06T01:07:44.954Z,957.2
2018-12-06T01:10:50.986Z,957.3
2018-12-06T01:13:56.857Z,957.3
2018-12-06T01:17:02.910Z,957.3
2018-12-06T01:20:08.818Z,957.3
2018-12-06T01:23:14.825Z,957.4
2018-12-06T01:26:20.712Z,957.3
2018-12-06T01:29:26.642Z,957.2
2018-12-06T01:32:32.520Z,957.3
2018-12-06T01:35:38.454Z,957.3
2018-12-06T01:38:44.325Z,957.3
2018-12-06T01:41:50.273Z,957.2
2018-12-06T01:44:56.233Z,957.3
2018-12-06T01:48:02.112Z,957.3
2018-12-06T01:51:08.056Z,957.3
2018-12-06T01:54:16.695Z,957.3
2018-12-06T01:57:22.731Z,957.3
2018-12-06T02:00:28.616Z,957.2
2018-12-06T02:03:34.646Z,957.2
2018-12-06T02:06:40.636Z,957.2
2018-12-06T02:09:46.579Z,957.1
2018-12-06T02:12:54.994Z,957.2
2018-12-06T02:16:01.046Z,957.2
2018-12-06T02:19:07.111Z,957.2
2018-12-06T02:22:12.984Z,957.2
2018-12-06T02:25:19.027Z,957.1
2018-12-06T02:28:25.186Z,957.1
2018-12-06T02:31:31.156Z,957.1
2018-12-06T02:34:37.132Z,957.1
2018-12-06T02:37:43.062Z,957.2
2018-12-06T02:40:48.938Z,957.1
2018-12-06T02:43:54.915Z,957.1
2018-12-06T02:47:00.839Z,957.1
2018-12-06T02:50:06.822Z,957.1
2018-12-06T02:53:12.874Z,957.1
2018-12-06T02:56:18.814Z,957.1
2018-12-06T02:59:24.877Z,957.1
2018-12-06T03:02:30.752Z,957.1
2018-12-06T03:05:36.700Z,957.1
2018-12-06T03:08:42.657Z,957
2018-12-06T03:11:48.719Z,957.1
2018-12-06T03:14:54.596Z,957
2018-12-06T03:18:00.540Z,957.1
2018-12-06T03:21:06.413Z,957.1
2018-12-06T03:24:12.351Z,957
2018-12-06T03:27:18.234Z,957
2018-12-06T03:30:24.319Z,957
2018-12-06T03:33:30.337Z,957
2018-12-06T03:36:36.489Z,957.1
2018-12-06T03:39:42.460Z,957
2018-12-06T03:42:48.424Z,957.1
2018-12-06T03:45:54.374Z,957.1
2018-12-06T03:49:00.325Z,957.1
2018-12-06T03:52:06.213Z,957.1
2018-12-06T03:55:12.173Z,957.1
2018-12-06T03:58:18.209Z,957.2
2018-12-06T04:01:24.297Z,957.1
2018-12-06T04:04:30.232Z,957.1
2018-12-06T04:07:36.295Z,957.1
2018-12-06T04:10:42.271Z,957.2
2018-12-06T04:13:48.210Z,957.2
2018-12-06T04:16:54.279Z,957.1
2018-12-06T04:20:00.332Z,957.2
2018-12-06T04:23:06.501Z,957.2
2018-12-06T04:26:12.457Z,957.2
2018-12-06T04:29:18.461Z,957.2
2018-12-06T04:32:24.426Z,957.1
2018-12-06T04:35:30.464Z,957.2
2018-12-06T04:38:36.406Z,957.2
2018-12-06T04:41:42.497Z,957.3
2018-12-06T04:44:48.519Z,957.3
2018-12-06T04:47:54.482Z,957.3
2018-12-06T04:51:00.659Z,957.3
2018-12-06T04:54:06.648Z,957.3
2018-12-06T04:57:12.671Z,957.3
2018-12-06T05:00:18.585Z,957.3
2018-12-06T05:03:24.586Z,957.4
2018-12-06T05:06:30.491Z,957.3
2018-12-06T05:09:36.642Z,957.4
2018-12-06T05:12:42.608Z,957.4
2018-12-06T05:15:48.726Z,957.4
2018-12-06T05:18:54.679Z,957.4
2018-12-06T05:22:00.640Z,957.3
2018-12-06T05:25:06.702Z,957.4
2018-12-06T05:28:12.658Z,957.4
2018-12-06T05:31:18.763Z,957.4
2018-12-06T05:34:24.727Z,957.4
2018-12-06T05:37:30.860Z,957.4
2018-12-06T05:40:36.893Z,957.5
2018-12-06T05:43:42.892Z,957.4
2018-12-06T05:46:48.764Z,957.4
2018-12-06T05:49:57.613Z,957.5
2018-12-06T05:53:04.658Z,957.4
2018-12-06T05:56:10.667Z,957.4
2018-12-06T05:59:16.653Z,957.5
2018-12-06T06:02:22.540Z,957.4
2018-12-06T06:05:28.470Z,957.5
2018-12-06T06:08:34.542Z,957.5
2018-12-06T06:11:40.603Z,957.5
2018-12-06T06:14:46.564Z,957.6
2018-12-06T06:17:52.612Z,957.6
2018-12-06T06:20:58.650Z,957.6
2018-12-06T06:24:04.841Z,957.6
2018-12-06T06:27:10.732Z,957.6
2018-12-06T06:30:19.634Z,957.5
2018-12-06T06:33:25.744Z,957.6
2018-12-06T06:36:31.746Z,957.6
2018-12-06T06:39:37.628Z,957.6
2018-12-06T06:42:43.569Z,957.6
2018-12-06T06:45:49.446Z,957.7
2018-12-06T06:48:55.385Z,957.8
2018-12-06T06:52:01.302Z,957.7
2018-12-06T06:55:07.398Z,957.7
2018-12-06T06:58:13.470Z,957.7
2018-12-06T07:01:19.635Z,957.7
2018-12-06T07:04:25.592Z,957.7
2018-12-06T07:07:31.546Z,957.8
2018-12-06T07:10:37.505Z,957.8
2018-12-06T07:13:43.569Z,957.8
2018-12-06T07:16:49.682Z,957.8
2018-12-06T07:19:55.568Z,957.8
2018-12-06T07:23:02.162Z,957.8
2018-12-06T07:26:08.140Z,957.8
2018-12-06T07:29:14.145Z,957.8
2018-12-06T07:32:20.348Z,957.8
2018-12-06T07:35:26.311Z,957.8
2018-12-06T07:38:34.005Z,957.9
2018-12-06T07:41:40.070Z,957.8
2018-12-06T07:44:46.100Z,957.9
2018-12-06T07:47:52.087Z,957.9
2018-12-06T07:50:58.053Z,957.9
2018-12-06T07:54:04.112Z,957.8
2018-12-06T07:57:10.093Z,957.9
2018-12-06T08:00:15.984Z,957.9
2018-12-06T08:03:24.142Z,957.8
2018-12-06T08:06:32.248Z,957.8
2018-12-06T08:09:38.436Z,957.7
2018-12-06T08:12:44.474Z,957.7
2018-12-06T08:15:50.547Z,957.7
2018-12-06T08:18:56.538Z,957.7
2018-12-06T08:22:02.536Z,957.8
2018-12-06T08:25:08.516Z,957.8
2018-12-06T08:28:14.399Z,957.8
2018-12-06T08:31:20.847Z,957.8
2018-12-06T08:34:26.815Z,957.8
2018-12-06T08:37:32.885Z,957.8
2018-12-06T08:40:39.847Z,957.9
2018-12-06T08:43:45.817Z,957.9
2018-12-06T08:46:51.817Z,957.9
2018-12-06T08:49:57.849Z,957.9
2018-12-06T08:53:03.793Z,957.9
2018-12-06T08:56:09.758Z,957.9
2018-12-06T08:59:15.645Z,957.9
2018-12-06T09:02:21.780Z,957.9
2018-12-06T09:05:27.945Z,957.9
2018-12-06T09:08:34.156Z,957.9
2018-12-06T09:11:40.434Z,957.8
2018-12-06T09:14:46.671Z,957.8
2018-12-06T09:17:53.636Z,957.8
2018-12-06T09:20:59.514Z,957.7
2018-12-06T09:24:05.536Z,957.6
2018-12-06T09:27:11.599Z,957.5
2018-12-06T09:30:17.585Z,957.5
2018-12-06T09:33:23.523Z,957.4
2018-12-06T09:36:29.563Z,957.4
2018-12-06T09:39:35.772Z,957.3
2018-12-06T09:42:41.722Z,957.2
2018-12-06T09:45:47.677Z,957.2
2018-12-06T09:48:53.627Z,957.2
2018-12-06T09:51:59.567Z,957.1
2018-12-06T09:55:05.636Z,957
2018-12-06T09:58:11.757Z,957
2018-12-06T10:01:20.790Z,957
2018-12-06T10:04:26.730Z,957
2018-12-06T10:07:32.895Z,957
2018-12-06T10:10:38.867Z,957
2018-12-06T10:13:44.898Z,956.9
2018-12-06T10:16:50.803Z,956.9
2018-12-06T10:19:57.877Z,956.9
2018-12-06T10:23:03.990Z,956.9
2018-12-06T10:26:09.949Z,956.8
2018-12-06T10:29:15.837Z,956.9
2018-12-06T10:32:24.330Z,956.9
2018-12-06T10:35:30.309Z,956.9
2018-12-06T10:38:36.263Z,956.8
2018-12-06T10:41:42.126Z,956.8
2018-12-06T10:44:48.068Z,956.8
2018-12-06T10:47:54.026Z,956.7
2018-12-06T10:51:02.895Z,956.6
2018-12-06T10:54:10.647Z,956.6
2018-12-06T10:57:16.629Z,956.6
2018-12-06T11:00:22.723Z,956.5
2018-12-06T11:03:28.944Z,956.5
2018-12-06T11:06:34.897Z,956.5
2018-12-06T11:09:40.958Z,956.4
2018-12-06T11:12:47.994Z,956.3
2018-12-06T11:15:53.951Z,956.3
2018-12-06T11:19:00.037Z,956.2
2018-12-06T11:22:05.904Z,956.2
2018-12-06T11:25:11.904Z,956.1
2018-12-06T11:28:19.139Z,956.1
2018-12-06T11:31:26.307Z,956
2018-12-06T11:34:32.697Z,956
2018-12-06T11:37:42.055Z,956
2018-12-06T11:40:48.334Z,956
2018-12-06T11:43:55.321Z,956
2018-12-06T11:47:04.196Z,956
2018-12-06T11:50:10.370Z,955.9
2018-12-06T11:53:16.427Z,956
2018-12-06T11:56:26.171Z,955.9
2018-12-06T11:59:33.265Z,955.9
2018-12-06T12:02:39.421Z,955.9
2018-12-06T12:05:45.296Z,955.9
2018-12-06T12:08:52.316Z,955.9
2018-12-06T12:11:58.622Z,955.9
2018-12-06T12:15:04.947Z,956
2018-12-06T12:18:11.980Z,956
2018-12-06T12:21:20.046Z,955.9
2018-12-06T12:24:26.109Z,955.9
2018-12-06T12:27:32.137Z,955.9
2018-12-06T12:30:38.017Z,955.9
2018-12-06T12:33:44.228Z,956
2018-12-06T12:36:50.485Z,956
2018-12-06T12:39:57.190Z,956
2018-12-06T12:43:03.302Z,955.9
2018-12-06T12:46:09.408Z,955.9
2018-12-06T12:49:15.367Z,955.9
2018-12-06T12:52:21.404Z,955.9
2018-12-06T12:55:27.339Z,955.9
2018-12-06T12:58:35.342Z,956
2018-12-06T13:01:41.352Z,956
2018-12-06T13:04:47.364Z,955.9
2018-12-06T13:07:53.327Z,956
2018-12-06T13:10:59.205Z,955.9
2018-12-06T13:14:05.168Z,955.9
2018-12-06T13:17:11.202Z,955.9
2018-12-06T13:20:17.110Z,955.9
2018-12-06T13:23:23.169Z,955.9
2018-12-06T13:26:29.540Z,955.8
2018-12-06T13:29:36.524Z,955.8
2018-12-06T13:32:42.536Z,955.8
2018-12-06T13:35:49.746Z,955.8
2018-12-06T13:38:56.111Z,955.8
2018-12-06T13:42:03.501Z,955.8
2018-12-06T13:45:09.389Z,955.9
2018-12-06T13:48:19.874Z,955.8
2018-12-06T13:51:26.350Z,955.8
2018-12-06T13:54:32.341Z,955.7
2018-12-06T13:57:38.401Z,955.8
2018-12-06T14:00:45.243Z,955.7
2018-12-06T14:03:53.598Z,955.8
2018-12-06T14:06:59.865Z,955.8
2018-12-06T14:10:05.926Z,955.8
2018-12-06T14:13:11.887Z,955.8
2018-12-06T14:16:28.493Z,955.8
2018-12-06T14:19:34.831Z,955.8
2018-12-06T14:22:40.718Z,955.8
2018-12-06T14:25:47.678Z,955.8
2018-12-06T14:28:54.560Z,955.7
2018-12-06T14:32:00.661Z,955.7
2018-12-06T14:35:06.736Z,955.7
2018-12-06T14:38:12.768Z,955.7
2018-12-06T14:41:19.823Z,955.7
2018-12-06T14:44:25.713Z,955.7
2018-12-06T14:47:33.718Z,955.8
2018-12-06T14:50:39.606Z,955.8
2018-12-06T14:53:45.964Z,955.8
2018-12-06T14:56:51.890Z,955.8
2018-12-06T14:59:58.118Z,955.8
2018-12-06T15:03:04.094Z,955.9
2018-12-06T15:06:13.587Z,955.8
2018-12-06T15:09:20.828Z,955.8
2018-12-06T15:12:28.117Z,955.8
2018-12-06T15:15:36.127Z,955.8
2018-12-06T15:18:44.004Z,955.8
2018-12-06T15:21:52.442Z,955.8
2018-12-06T15:24:59.146Z,955.8
2018-12-06T15:28:05.702Z,955.8
2018-12-06T15:31:14.225Z,955.9
2018-12-06T15:34:21.011Z,955.9
2018-12-06T15:37:28.496Z,955.8
2018-12-06T15:40:36.748Z,955.8
2018-12-06T15:43:42.797Z,955.9
2018-12-06T15:46:48.827Z,955.8
2018-12-06T15:49:54.823Z,955.8
2018-12-06T15:53:00.878Z,955.9
2018-12-06T15:56:06.943Z,955.9
2018-12-06T15:59:13.876Z,955.9
2018-12-06T16:02:19.885Z,955.9
2018-12-06T16:05:25.946Z,955.9
2018-12-06T16:08:31.912Z,955.9
2018-12-06T16:11:37.817Z,955.9
2018-12-06T16:14:44.744Z,955.9
2018-12-06T16:17:50.807Z,955.9
2018-12-06T16:20:56.702Z,955.9
2018-12-06T16:24:03.067Z,956
2018-12-06T16:27:09.879Z,956.1
2018-12-06T16:30:18.196Z,956.1
2018-12-06T16:33:25.077Z,956.1
2018-12-06T16:36:31.533Z,956.1
2018-12-06T16:39:37.550Z,956.1
2018-12-06T16:42:46.304Z,956.1
2018-12-06T16:45:52.333Z,956.2
2018-12-06T16:48:58.231Z,956.3
2018-12-06T16:52:11.826Z,956.3
2018-12-06T16:55:17.810Z,956.2
2018-12-06T16:58:26.711Z,956.3
2018-12-06T17:01:32.673Z,956.4
2018-12-06T17:04:38.628Z,956.5
2018-12-06T17:07:44.594Z,956.5
2018-12-06T17:10:50.653Z,956.6
2018-12-06T17:13:58.042Z,956.6
2018-12-06T17:17:04.111Z,956.5
2018-12-06T17:20:09.992Z,956.5
2018-12-06T17:23:16.024Z,956.6
2018-12-06T17:26:21.908Z,956.6
2018-12-06T17:29:27.844Z,956.5
2018-12-06T17:32:33.807Z,956.6
2018-12-06T17:35:39.690Z,956.6
2018-12-06T17:38:45.722Z,956.6
2018-12-06T17:41:51.680Z,956.6
2018-12-06T17:44:57.740Z,956.7
2018-12-06T17:48:03.683Z,956.7
2018-12-06T17:51:09.767Z,956.6
2018-12-06T17:54:15.833Z,956.6
2018-12-06T17:57:21.705Z,956.6
2018-12-06T18:00:27.740Z,956.5
2018-12-06T18:03:36.362Z,956.5
2018-12-06T18:06:42.327Z,956.5
2018-12-06T18:09:48.997Z,956.4
2018-12-06T18:12:55.060Z,956.5
2018-12-06T18:16:01.022Z,956.4
2018-12-06T18:19:06.987Z,956.3
2018-12-06T18:22:12.948Z,956.4
2018-12-06T18:25:19.035Z,956.4
2018-12-06T18:28:25.110Z,956.4
2018-12-06T18:31:31.024Z,956.4
2018-12-06T18:34:37.087Z,956.4
2018-12-06T18:37:43.170Z,956.4
2018-12-06T18:40:49.105Z,956.4
2018-12-06T18:43:55.060Z,956.5
2018-12-06T18:47:01.066Z,956.5
2018-12-06T18:50:07.190Z,956.6
2018-12-06T18:53:13.066Z,956.5
2018-12-06T18:56:19.055Z,956.5
2018-12-06T18:59:28.056Z,956.5
2018-12-06T19:02:34.043Z,956.5
2018-12-06T19:05:39.936Z,956.5
2018-12-06T19:08:46.182Z,956.5
2018-12-06T19:11:52.312Z,956.5
2018-12-06T19:14:58.180Z,956.5
2018-12-06T19:18:04.415Z,956.6
2018-12-06T19:21:10.313Z,956.5
2018-12-06T19:24:16.340Z,956.6
2018-12-06T19:27:22.285Z,956.6
2018-12-06T19:30:28.375Z,956.8
2018-12-06T19:33:34.462Z,956.7
2018-12-06T19:36:40.473Z,956.7
2018-12-06T19:39:46.366Z,956.8
2018-12-06T19:42:52.394Z,956.8
2018-12-06T19:45:58.352Z,956.8
2018-12-06T19:49:04.569Z,956.9
2018-12-06T19:52:10.496Z,956.9
2018-12-06T19:55:16.547Z,956.9
2018-12-06T19:58:25.286Z,956.9
2018-12-06T20:01:31.337Z,956.8
2018-12-06T20:04:37.382Z,956.9
2018-12-06T20:07:43.383Z,956.9
2018-12-06T20:10:49.406Z,956.9
2018-12-06T20:13:55.312Z,956.9
2018-12-06T20:17:01.326Z,956.9
2018-12-06T20:20:07.206Z,957.1
2018-12-06T20:23:13.144Z,957
2018-12-06T20:26:19.011Z,957.1
2018-12-06T20:29:25.070Z,957.1
2018-12-06T20:32:30.931Z,957.1
2018-12-06T20:35:36.876Z,957.1
2018-12-06T20:38:43.124Z,957.1
2018-12-06T20:41:49.130Z,957.1
2018-12-06T20:44:55.163Z,957.1
2018-12-06T20:48:01.122Z,957
2018-12-06T20:51:07.110Z,957.1
2018-12-06T20:54:13.140Z,956.9
2018-12-06T20:57:19.207Z,956.9
2018-12-06T21:00:25.160Z,956.9
2018-12-06T21:03:31.084Z,956.9
2018-12-06T21:06:37.087Z,956.9
2018-12-06T21:09:43.051Z,957
2018-12-06T21:12:49.012Z,957.1
2018-12-06T21:15:54.961Z,957.2
2018-12-06T21:19:00.945Z,957.2
2018-12-06T21:22:06.994Z,957.1
2018-12-06T21:25:13.152Z,957.1
2018-12-06T21:28:19.030Z,957.2
2018-12-06T21:31:25.065Z,957.1
2018-12-06T21:34:33.900Z,957.1
2018-12-06T21:37:39.851Z,957.1
2018-12-06T21:40:45.735Z,957.1
2018-12-06T21:43:51.621Z,957.1
2018-12-06T21:46:57.635Z,957.1
2018-12-06T21:50:03.509Z,957.1
2018-12-06T21:53:09.589Z,957
2018-12-06T21:56:15.428Z,957
2018-12-06T21:59:21.361Z,957.1
2018-12-06T22:02:27.349Z,957.1
2018-12-06T22:05:33.384Z,957.1
2018-12-06T22:08:42.044Z,957.1
2018-12-06T22:11:48.065Z,957.1
2018-12-06T22:14:54.034Z,957.1
2018-12-06T22:17:59.916Z,957.2
2018-12-06T22:21:05.845Z,957.2
2018-12-06T22:24:11.733Z,957.3
2018-12-06T22:27:17.769Z,957.2
2018-12-06T22:30:23.725Z,957.1
2018-12-06T22:33:29.624Z,957.1
2018-12-06T22:36:35.648Z,957
2018-12-06T22:39:41.586Z,957.1
2018-12-06T22:42:47.558Z,957
2018-12-06T22:45:53.440Z,956.9
2018-12-06T22:48:59.515Z,956.9
2018-12-06T22:52:05.541Z,956.9
2018-12-06T22:55:11.436Z,956.8
2018-12-06T22:58:17.686Z,956.8
2018-12-06T23:01:23.621Z,956.8
2018-12-06T23:04:29.614Z,956.7
2018-12-06T23:07:35.540Z,956.7
2018-12-06T23:10:41.511Z,956.7
2018-12-06T23:13:47.568Z,956.7
2018-12-06T23:16:53.525Z,956.8
2018-12-06T23:19:59.423Z,956.7
2018-12-06T23:23:05.440Z,956.8
2018-12-06T23:26:11.507Z,956.8
2018-12-06T23:29:17.405Z,956.9
2018-12-06T23:32:23.435Z,956.8
2018-12-06T23:35:29.378Z,956.9
2018-12-06T23:38:35.253Z,957
2018-12-06T23:41:41.210Z,956.9
2018-12-06T23:44:47.257Z,956.9
2018-12-06T23:47:53.225Z,956.9
2018-12-06T23:50:59.287Z,956.8
2018-12-06T23:54:05.288Z,956.8
2018-12-06T23:57:11.208Z,956.8
